createdAt,value
2019-04-05T00:01:12.849Z,6.87
2019-04-05T00:05:19.667Z,6.93
2019-04-05T00:09:26.363Z,5.60
2019-04-05T00:13:33.130Z,6.17
2019-04-05T00:17:39.798Z,7.10
2019-04-05T00:21:46.465Z,5.70
2019-04-05T00:25:53.220Z,11.50
2019-04-05T00:29:59.896Z,9.37
2019-04-05T00:34:06.562Z,9.10
2019-04-05T00:38:13.348Z,7.30
2019-04-05T00:42:21.145Z,6.90
2019-04-05T00:46:28.897Z,5.83
2019-04-05T00:50:37.406Z,4.93
2019-04-05T00:54:44.327Z,5.93
2019-04-05T00:58:51.070Z,6.73
2019-04-05T01:02:57.724Z,6.00
2019-04-05T01:07:07.262Z,6.23
2019-04-05T01:11:14.168Z,5.77
2019-04-05T01:15:20.921Z,7.93
2019-04-05T01:19:32.698Z,6.73
2019-04-05T01:23:39.864Z,6.90
2019-04-05T01:27:48.474Z,7.50
2019-04-05T01:31:55.459Z,6.37
2019-04-05T01:36:02.171Z,8.23
2019-04-05T01:40:11.773Z,11.03
2019-04-05T01:44:19.983Z,8.10
2019-04-05T01:48:27.761Z,7.50
2019-04-05T01:52:35.933Z,8.17
2019-04-05T01:56:42.949Z,7.10
2019-04-05T02:00:49.709Z,7.47
2019-04-05T02:04:56.651Z,8.37
2019-04-05T02:09:08.650Z,8.17
2019-04-05T02:13:15.491Z,8.00
2019-04-05T02:17:22.217Z,9.73
2019-04-05T02:21:29.327Z,9.73
2019-04-05T02:25:36.029Z,8.20
2019-04-05T02:29:42.665Z,11.07
2019-04-05T02:33:49.357Z,10.80
2019-04-05T02:37:56.240Z,10.83
2019-04-05T02:42:03.160Z,11.07
2019-04-05T02:46:23.621Z,11.80
2019-04-05T02:50:23.076Z,9.70
2019-04-05T02:54:30.329Z,12.33
2019-04-05T02:58:40.651Z,13.33
2019-04-05T03:02:48.141Z,11.67
2019-04-05T03:06:55.106Z,12.53
2019-04-05T03:11:16.283Z,12.87
2019-04-05T03:15:23.314Z,11.73
2019-04-05T03:19:33.854Z,10.67
2019-04-05T03:23:44.222Z,12.33
2019-04-05T03:27:51.006Z,12.77
2019-04-05T03:31:58.016Z,11.57
2019-04-05T03:36:05.081Z,10.23
2019-04-05T03:40:12.998Z,11.57
2019-04-05T03:44:22.954Z,11.50
2019-04-05T03:48:28.543Z,13.93
2019-04-05T03:52:35.534Z,14.53
2019-04-05T03:56:42.302Z,14.73
2019-04-05T04:00:49.105Z,14.23
2019-04-05T04:04:57.335Z,14.83
2019-04-05T04:09:05.233Z,14.23
2019-04-05T04:13:11.916Z,14.63
2019-04-05T04:17:21.574Z,15.40
2019-04-05T04:21:39.656Z,18.77
2019-04-05T04:25:47.022Z,15.53
2019-04-05T04:29:55.435Z,16.50
2019-04-05T04:34:02.673Z,15.30
2019-04-05T04:38:10.247Z,16.20
2019-04-05T04:42:18.080Z,18.80
2019-04-05T04:46:25.001Z,19.63
2019-04-05T04:50:33.041Z,21.67
2019-04-05T04:54:40.109Z,21.07
2019-04-05T04:58:46.812Z,22.20
2019-04-05T05:02:54.051Z,21.67
2019-04-05T05:07:00.932Z,23.30
2019-04-05T05:11:14.502Z,19.30
2019-04-05T05:15:17.217Z,21.40
2019-04-05T05:19:24.431Z,21.17
2019-04-05T05:23:31.199Z,21.10
2019-04-05T05:27:38.989Z,21.90
2019-04-05T05:31:45.799Z,20.03
2019-04-05T05:35:52.540Z,24.83
2019-04-05T05:40:01.081Z,21.87
2019-04-05T05:44:07.769Z,18.07
2019-04-05T05:48:15.075Z,17.47
2019-04-05T05:52:22.559Z,16.00
2019-04-05T05:56:29.204Z,14.57
2019-04-05T06:00:35.857Z,16.73
2019-04-05T06:04:42.661Z,13.83
2019-04-05T06:08:49.414Z,13.60
2019-04-05T06:12:58.617Z,48.37
2019-04-05T06:17:04.493Z,14.20
2019-04-05T06:21:11.639Z,14.30
2019-04-05T06:25:18.342Z,11.70
2019-04-05T06:29:25.136Z,11.47
2019-04-05T06:33:32.203Z,13.17
2019-04-05T06:37:39.025Z,11.77
2019-04-05T06:41:45.783Z,10.80
2019-04-05T06:45:52.611Z,10.97
2019-04-05T06:49:59.286Z,10.53
2019-04-05T06:54:06.077Z,9.07
2019-04-05T06:58:19.583Z,9.77
2019-04-05T07:02:21.237Z,9.70
2019-04-05T07:06:28.006Z,11.83
2019-04-05T07:10:35.631Z,11.20
2019-04-05T07:14:42.315Z,10.20
2019-04-05T07:18:49.001Z,12.70
2019-04-05T07:22:56.717Z,11.43
2019-04-05T07:27:03.469Z,10.60
2019-04-05T07:31:10.271Z,10.67
2019-04-05T07:35:16.947Z,11.77
2019-04-05T07:39:23.700Z,12.67
2019-04-05T07:43:30.364Z,11.83
2019-04-05T07:47:38.790Z,13.43
2019-04-05T07:51:49.446Z,11.13
2019-04-05T07:55:56.127Z,11.33
2019-04-05T08:00:08.513Z,12.63
2019-04-05T08:04:16.318Z,12.17
2019-04-05T08:09:05.693Z,14.00
2019-04-05T08:13:15.303Z,10.70
2019-04-05T08:17:22.046Z,10.80
2019-04-05T08:21:28.737Z,10.40
2019-04-05T08:25:35.436Z,11.13
2019-04-05T08:29:42.099Z,14.50
2019-04-05T08:33:48.839Z,11.17
2019-04-05T08:37:55.688Z,12.83
2019-04-05T08:42:03.187Z,12.30
2019-04-05T08:46:09.933Z,12.90
2019-04-05T08:50:16.687Z,13.53
2019-04-05T08:54:32.558Z,11.63
2019-04-05T08:58:33.466Z,13.20
2019-04-05T09:02:41.034Z,14.77
2019-04-05T09:06:47.879Z,13.43
2019-04-05T09:10:54.787Z,12.50
2019-04-05T09:15:01.606Z,14.47
2019-04-05T09:19:08.367Z,14.33
2019-04-05T09:23:15.105Z,14.43
2019-04-05T09:27:21.789Z,14.77
2019-04-05T09:31:29.704Z,15.33
2019-04-05T09:35:36.440Z,16.03
2019-04-05T09:39:43.222Z,17.17
2019-04-05T09:43:49.886Z,17.03
2019-04-05T09:47:56.555Z,17.07
2019-04-05T09:52:03.538Z,17.30
2019-04-05T09:56:10.242Z,17.50
2019-04-05T10:00:25.306Z,18.13
2019-04-05T10:04:32.027Z,17.90
2019-04-05T10:08:38.824Z,16.87
2019-04-05T10:12:45.586Z,16.23
2019-04-05T10:16:52.263Z,19.07
2019-04-05T10:20:58.975Z,17.63
2019-04-05T10:25:06.128Z,18.20
2019-04-05T10:29:12.905Z,19.37
2019-04-05T10:33:19.665Z,16.07
2019-04-05T10:37:26.418Z,19.97
2019-04-05T10:41:34.197Z,16.77
2019-04-05T10:45:41.012Z,21.87
2019-04-05T10:49:47.856Z,18.10
2019-04-05T10:53:54.601Z,17.27
2019-04-05T10:58:01.282Z,15.33
2019-04-05T11:02:08.037Z,18.07
2019-04-05T11:06:14.971Z,17.23
2019-04-05T11:10:22.131Z,16.87
2019-04-05T11:14:28.909Z,16.83
2019-04-05T11:18:35.786Z,16.23
2019-04-05T11:22:42.500Z,18.67
2019-04-05T11:26:49.270Z,16.73
2019-04-05T11:30:56.008Z,16.30
2019-04-05T11:35:02.899Z,17.60
2019-04-05T11:39:10.869Z,18.40
2019-04-05T11:43:19.442Z,17.40
2019-04-05T11:47:26.711Z,19.20
2019-04-05T11:51:33.391Z,16.30
2019-04-05T11:55:40.151Z,17.37
2019-04-05T11:59:48.517Z,18.80
2019-04-05T12:03:55.317Z,19.40
2019-04-05T12:08:02.234Z,18.90
2019-04-05T12:12:08.970Z,19.53
2019-04-05T12:16:15.879Z,18.30
2019-04-05T12:21:16.713Z,20.70
2019-04-05T12:25:20.351Z,19.03
2019-04-05T12:29:28.671Z,23.13
2019-04-05T12:33:35.456Z,21.23
2019-04-05T12:37:50.049Z,22.70
2019-04-05T12:41:50.733Z,24.30
2019-04-05T12:45:57.479Z,24.37
2019-04-05T12:50:07.632Z,22.87
2019-04-05T12:54:14.319Z,23.73
2019-04-05T12:58:21.259Z,22.13
2019-04-05T13:02:33.891Z,25.93
2019-04-05T13:06:37.691Z,23.90
2019-04-05T13:10:44.989Z,23.70
2019-04-05T13:14:53.445Z,21.10
2019-04-05T13:19:02.104Z,24.27
2019-04-05T13:23:08.961Z,22.10
2019-04-05T13:27:16.021Z,24.40
2019-04-05T13:31:23.769Z,22.57
2019-04-05T13:35:30.636Z,23.90
2019-04-05T13:39:37.343Z,24.67
2019-04-05T13:43:44.121Z,22.93
2019-04-05T13:47:50.933Z,23.10
2019-04-05T13:51:57.663Z,24.37
2019-04-05T13:56:04.538Z,27.40
2019-04-05T14:00:12.914Z,26.33
2019-04-05T14:04:21.088Z,23.60
2019-04-05T14:08:29.366Z,26.60
2019-04-05T14:12:37.666Z,25.67
2019-04-05T14:16:44.949Z,25.93
2019-04-05T14:20:52.223Z,22.73
2019-04-05T14:24:59.753Z,23.50
2019-04-05T14:29:07.398Z,22.27
2019-04-05T14:33:14.733Z,23.23
2019-04-05T14:37:25.024Z,22.73
2019-04-05T14:41:30.968Z,26.33
2019-04-05T14:45:37.772Z,20.30
2019-04-05T14:49:46.446Z,26.53
2019-04-05T14:53:53.188Z,28.83
2019-04-05T14:58:06.264Z,24.00
2019-04-05T15:02:13.692Z,21.70
2019-04-05T15:06:21.074Z,21.70
2019-04-05T15:10:28.308Z,22.10
2019-04-05T15:14:35.545Z,21.73
2019-04-05T15:18:47.375Z,20.03
2019-04-05T15:22:58.161Z,20.83
2019-04-05T15:27:07.382Z,22.30
2019-04-05T15:31:14.742Z,19.67
2019-04-05T15:35:21.620Z,18.07
2019-04-05T15:39:28.573Z,20.33
2019-04-05T15:43:38.012Z,23.70
2019-04-05T15:47:44.773Z,21.83
2019-04-05T15:51:54.314Z,22.00
2019-04-05T15:56:03.893Z,24.03
2019-04-05T16:00:14.332Z,23.20
2019-04-05T16:04:21.289Z,23.17
2019-04-05T16:08:28.776Z,23.33
2019-04-05T16:12:35.639Z,24.20
2019-04-05T16:16:42.493Z,23.13
2019-04-05T16:20:49.310Z,54.63
2019-04-05T16:24:56.057Z,24.00
2019-04-05T16:29:04.715Z,25.07
2019-04-05T16:33:11.614Z,24.87
2019-04-05T16:37:19.732Z,26.03
2019-04-05T16:41:26.502Z,26.27
2019-04-05T16:45:33.287Z,27.07
2019-04-05T16:49:40.075Z,27.80
2019-04-05T16:54:03.349Z,27.70
2019-04-05T16:58:10.188Z,27.10
2019-04-05T17:02:17.012Z,29.57
2019-04-05T17:06:24.927Z,27.17
2019-04-05T17:10:31.930Z,26.67
2019-04-05T17:14:38.949Z,28.73
2019-04-05T17:18:45.912Z,30.43
2019-04-05T17:22:58.485Z,36.20
2019-04-05T17:27:01.376Z,35.77
2019-04-05T17:31:08.094Z,41.17
2019-04-05T17:35:14.935Z,34.57
2019-04-05T17:39:24.775Z,35.70
2019-04-05T17:43:31.579Z,37.90
2019-04-05T17:47:38.309Z,41.80
2019-04-05T17:51:45.807Z,37.10
2019-04-05T17:55:52.642Z,38.10
2019-04-05T17:59:59.864Z,38.33
2019-04-05T18:04:09.529Z,38.70
2019-04-05T18:08:17.335Z,40.53
2019-04-05T18:12:25.628Z,39.63
2019-04-05T18:16:37.460Z,41.93
2019-04-05T18:20:44.689Z,41.27
2019-04-05T18:24:53.087Z,42.63
2019-04-05T18:28:59.980Z,41.50
2019-04-05T18:33:06.713Z,40.07
2019-04-05T18:37:13.792Z,46.43
2019-04-05T18:41:21.705Z,43.20
2019-04-05T18:45:28.483Z,43.60
2019-04-05T18:49:35.292Z,43.40
2019-04-05T18:53:42.100Z,47.07
2019-04-05T18:57:48.788Z,49.00
2019-04-05T19:01:55.519Z,48.07
2019-04-05T19:06:02.280Z,46.63
2019-04-05T19:10:09.375Z,45.87
2019-04-05T19:14:16.028Z,45.50
2019-04-05T19:18:22.771Z,50.43
2019-04-05T19:22:31.801Z,48.33
2019-04-05T19:26:38.909Z,46.53
2019-04-05T19:51:32.086Z,45.03
2019-04-05T19:55:39.192Z,50.67
2019-04-05T19:59:45.953Z,50.23
2019-04-05T20:03:53.070Z,48.40
2019-04-05T20:08:00.032Z,46.80
2019-04-05T20:12:07.065Z,53.60
2019-04-05T20:16:15.650Z,51.80
2019-04-05T20:20:22.671Z,51.80
2019-04-05T20:24:29.432Z,47.07
2019-04-05T20:28:36.865Z,46.07
2019-04-05T20:32:43.837Z,49.33
2019-04-05T20:36:51.074Z,47.53
2019-04-05T20:40:58.497Z,44.70
2019-04-05T20:45:05.866Z,43.67
2019-04-05T20:49:12.917Z,50.13
2019-04-05T20:53:19.848Z,48.60
2019-04-05T20:57:26.944Z,54.27
2019-04-05T21:01:33.740Z,51.93
2019-04-05T21:05:41.034Z,49.10
2019-04-05T21:09:48.095Z,54.73
2019-04-05T21:13:55.335Z,50.90
2019-04-05T21:18:04.894Z,53.47
2019-04-05T21:22:11.628Z,52.57
2019-04-05T21:26:21.588Z,51.53
2019-04-05T21:30:28.324Z,61.43
2019-04-05T21:34:35.067Z,56.13
2019-04-05T21:38:41.810Z,55.40
2019-04-05T21:42:50.472Z,54.83
2019-04-05T21:46:57.445Z,54.40
2019-04-05T21:51:04.261Z,54.70
2019-04-05T21:55:11.590Z,53.60
2019-04-05T21:59:18.386Z,51.57
2019-04-05T22:03:25.238Z,47.90
2019-04-05T22:07:33.636Z,50.10
2019-04-05T22:11:41.755Z,49.50
2019-04-05T22:15:49.326Z,49.63
2019-04-05T22:19:56.007Z,48.80
2019-04-05T22:24:02.733Z,51.37
2019-04-05T22:28:10.545Z,55.50
2019-04-05T22:32:17.747Z,52.60
2019-04-05T22:36:24.521Z,60.20
2019-04-05T22:40:31.270Z,59.43
2019-04-05T22:44:41.331Z,53.33
2019-04-05T22:48:46.472Z,51.80
2019-04-05T22:52:53.165Z,56.53
2019-04-05T22:56:59.865Z,54.37
2019-04-05T23:01:06.689Z,43.97
2019-04-05T23:05:13.481Z,51.50
2019-04-05T23:09:21.308Z,55.07
2019-04-05T23:13:27.935Z,50.40
2019-04-05T23:17:34.764Z,47.77
2019-04-05T23:21:41.643Z,48.23
2019-04-05T23:25:48.349Z,46.20
2019-04-05T23:29:55.139Z,46.20
2019-04-05T23:34:02.121Z,45.60
2019-04-05T23:38:08.829Z,42.63
2019-04-05T23:42:15.591Z,42.33
2019-04-05T23:46:22.260Z,47.20
2019-04-05T23:50:28.946Z,44.90
2019-04-05T23:54:35.630Z,38.00
2019-04-05T23:58:42.310Z,42.73
